createdAt,value
2023-04-02T00:00:35.679Z,52.32
2023-04-02T00:03:08.700Z,53.40
2023-04-02T00:05:54.862Z,51.52
2023-04-02T00:08:38.983Z,51.87
2023-04-02T00:11:07.951Z,52.40
2023-04-02T00:13:46.874Z,51.93
2023-04-02T00:16:24.003Z,52.47
2023-04-02T00:18:53.944Z,52.43
2023-04-02T00:21:39.964Z,52.03
2023-04-02T00:24:15.525Z,51.50
2023-04-02T00:26:48.310Z,51.31
2023-04-02T00:29:17.305Z,51.17
2023-04-02T00:31:50.143Z,51.11
2023-04-02T00:34:21.949Z,50.99
2023-04-02T00:36:51.073Z,51.23
2023-04-02T00:39:29.889Z,50.79
2023-04-02T00:42:04.820Z,50.96
2023-04-02T00:44:44.576Z,50.37
2023-04-02T00:47:21.545Z,50.59
2023-04-02T00:49:54.715Z,50.69
2023-04-02T00:52:25.026Z,51.06
2023-04-02T00:54:59.304Z,50.90
2023-04-02T00:57:28.313Z,51.10
2023-04-02T01:00:22.572Z,51.02
2023-04-02T01:03:17.899Z,52.17
2023-04-02T01:05:50.830Z,51.03
2023-04-02T01:08:42.964Z,51.15
2023-04-02T01:11:28.521Z,51.12
2023-04-02T01:14:09.588Z,52.91
2023-04-02T01:16:54.818Z,50.88
2023-04-02T01:19:42.402Z,51.05
2023-04-02T01:22:20.558Z,51.71
2023-04-02T01:24:48.476Z,50.87
2023-04-02T01:27:28.672Z,50.19
2023-04-02T01:29:57.710Z,49.96
2023-04-02T01:32:29.152Z,49.49
2023-04-02T01:34:57.340Z,49.40
2023-04-02T01:37:24.878Z,49.12
2023-04-02T01:40:11.532Z,49.10
2023-04-02T01:43:19.724Z,48.88
2023-04-02T01:45:47.498Z,48.94
2023-04-02T01:48:19.948Z,48.95
2023-04-02T01:50:49.870Z,49.48
2023-04-02T01:53:19.220Z,49.12
2023-04-02T01:56:12.934Z,49.25
2023-04-02T01:58:41.065Z,48.80
2023-04-02T02:01:14.728Z,48.85
2023-04-02T02:03:44.239Z,48.71
2023-04-02T02:06:14.895Z,48.50
2023-04-02T02:08:48.848Z,48.54
2023-04-02T02:11:20.285Z,48.45
2023-04-02T02:13:50.433Z,48.60
2023-04-02T02:16:18.440Z,48.62
2023-04-02T02:18:52.369Z,48.52
2023-04-02T02:21:31.913Z,48.57
2023-04-02T02:24:00.303Z,48.57
2023-04-02T02:26:28.714Z,49.56
2023-04-02T02:28:57.353Z,49.88
2023-04-02T02:31:30.020Z,50.91
2023-04-02T02:34:09.057Z,50.88
2023-04-02T02:36:55.405Z,51.06
2023-04-02T02:39:44.336Z,51.50
2023-04-02T02:42:15.906Z,52.64
2023-04-02T02:44:44.896Z,52.21
2023-04-02T02:47:22.020Z,51.90
2023-04-02T02:49:55.437Z,51.92
2023-04-02T02:52:27.022Z,52.25
2023-04-02T02:54:58.029Z,52.84
2023-04-02T02:57:28.930Z,52.71
2023-04-02T02:59:58.265Z,52.70
2023-04-02T03:02:27.846Z,53.22
2023-04-02T03:04:56.644Z,52.82
2023-04-02T03:07:26.732Z,52.63
2023-04-02T03:10:01.751Z,53.48
2023-04-02T03:13:00.282Z,53.02
2023-04-02T03:15:36.070Z,52.56
2023-04-02T03:18:09.056Z,52.95
2023-04-02T03:20:53.209Z,52.45
2023-04-02T03:23:40.762Z,52.44
2023-04-02T03:26:13.640Z,52.42
2023-04-02T03:28:46.774Z,52.86
2023-04-02T03:31:28.355Z,51.97
2023-04-02T03:33:59.436Z,52.08
2023-04-02T03:36:28.627Z,54.39
2023-04-02T03:39:10.197Z,52.10
2023-04-02T03:41:45.328Z,51.56
2023-04-02T03:44:28.105Z,51.14
2023-04-02T03:46:59.135Z,50.99
2023-04-02T03:49:33.477Z,52.26
2023-04-02T03:52:12.192Z,52.37
2023-04-02T03:54:40.985Z,53.23
2023-04-02T03:57:48.114Z,52.16
2023-04-02T04:00:20.899Z,52.65
2023-04-02T04:02:57.511Z,52.25
2023-04-02T04:05:35.508Z,52.93
2023-04-02T04:08:07.071Z,52.56
2023-04-02T04:10:35.252Z,52.58
2023-04-02T04:13:07.405Z,52.76
2023-04-02T04:15:56.532Z,53.46
2023-04-02T04:19:05.114Z,52.89
2023-04-02T04:21:38.499Z,52.86
2023-04-02T04:24:13.911Z,52.47
2023-04-02T04:27:52.880Z,52.50
2023-04-02T04:30:30.748Z,51.73
2023-04-02T04:33:02.058Z,52.18
2023-04-02T04:35:32.920Z,51.25
2023-04-02T04:38:12.226Z,50.83
2023-04-02T04:40:52.444Z,50.63
2023-04-02T04:43:37.939Z,50.88
2023-04-02T04:46:17.727Z,50.65
2023-04-02T04:49:01.075Z,50.48
2023-04-02T04:51:37.063Z,51.03
2023-04-02T04:54:05.374Z,50.95
2023-04-02T04:56:33.929Z,52.31
2023-04-02T04:59:14.187Z,51.24
2023-04-02T05:01:50.690Z,51.34
2023-04-02T05:04:34.663Z,50.93
2023-04-02T05:07:09.299Z,49.87
2023-04-02T05:09:42.224Z,49.99
2023-04-02T05:12:35.387Z,49.46
2023-04-02T05:15:11.386Z,49.82
2023-04-02T05:18:21.144Z,50.71
2023-04-02T05:21:24.317Z,50.44
2023-04-02T05:23:54.734Z,50.45
2023-04-02T05:26:26.236Z,49.34
2023-04-02T05:29:18.354Z,50.39
2023-04-02T05:31:57.985Z,47.71
2023-04-02T05:34:28.584Z,47.85
2023-04-02T05:36:56.512Z,48.47
2023-04-02T05:39:25.820Z,47.60
2023-04-02T05:42:05.645Z,47.58
2023-04-02T05:44:39.013Z,48.02
2023-04-02T05:47:17.588Z,49.18
2023-04-02T05:49:50.890Z,49.54
2023-04-02T05:52:30.189Z,49.11
2023-04-02T05:55:12.773Z,49.77
2023-04-02T05:57:56.622Z,48.62
2023-04-02T06:00:36.518Z,49.70
2023-04-02T06:03:08.360Z,51.45
2023-04-02T06:05:40.345Z,49.25
2023-04-02T06:08:23.924Z,48.05
2023-04-02T06:11:04.496Z,48.16
2023-04-02T06:13:32.740Z,48.29
2023-04-02T06:16:01.449Z,48.26
2023-04-02T06:18:32.080Z,50.07
2023-04-02T06:21:01.251Z,48.12
2023-04-02T06:23:48.334Z,48.99
2023-04-02T06:26:29.994Z,48.32
2023-04-02T06:29:05.978Z,47.72
2023-04-02T06:31:42.654Z,47.97
2023-04-02T06:34:19.731Z,48.34
2023-04-02T06:36:50.772Z,48.18
2023-04-02T06:39:24.028Z,48.36
2023-04-02T06:42:11.168Z,50.53
2023-04-02T06:44:41.891Z,49.25
2023-04-02T06:47:37.818Z,49.33
2023-04-02T06:50:07.098Z,49.65
2023-04-02T06:52:39.611Z,50.21
2023-04-02T06:55:20.674Z,49.89
2023-04-02T06:57:48.841Z,50.46
2023-04-02T07:00:42.589Z,50.66
2023-04-02T07:03:32.855Z,50.48
2023-04-02T07:06:02.454Z,50.85
2023-04-02T07:08:30.679Z,49.32
2023-04-02T07:10:58.511Z,50.12
2023-04-02T07:13:26.288Z,50.53
2023-04-02T07:15:55.314Z,50.26
2023-04-02T07:18:27.039Z,49.84
2023-04-02T07:20:55.248Z,51.59
2023-04-02T07:23:23.728Z,51.19
2023-04-02T07:25:53.250Z,49.86
2023-04-02T07:28:22.720Z,49.76
2023-04-02T07:30:51.352Z,51.40
2023-04-02T07:33:21.803Z,51.50
2023-04-02T07:35:50.732Z,52.60
2023-04-02T07:38:18.162Z,51.84
2023-04-02T07:40:45.737Z,49.70
2023-04-02T07:43:13.664Z,52.94
2023-04-02T07:45:41.311Z,52.25
2023-04-02T07:48:12.879Z,50.39
2023-04-02T07:50:41.022Z,51.12
2023-04-02T07:53:27.179Z,51.25
2023-04-02T07:55:54.842Z,50.43
2023-04-02T07:58:22.298Z,51.34
2023-04-02T08:00:50.036Z,50.06
2023-04-02T08:03:17.804Z,50.69
2023-04-02T08:05:51.165Z,51.09
2023-04-02T08:08:19.130Z,50.98
2023-04-02T08:10:47.266Z,51.79
2023-04-02T08:13:15.683Z,50.27
2023-04-02T08:15:43.912Z,50.35
2023-04-02T08:18:11.643Z,50.94
2023-04-02T08:20:39.542Z,51.43
2023-04-02T08:23:15.381Z,51.94
2023-04-02T08:25:42.801Z,52.56
2023-04-02T08:28:10.532Z,51.63
2023-04-02T08:30:38.426Z,53.12
2023-04-02T08:33:06.550Z,52.92
2023-04-02T08:35:34.932Z,50.68
2023-04-02T08:38:02.636Z,51.46
2023-04-02T08:40:41.280Z,52.68
2023-04-02T08:43:38.672Z,51.70
2023-04-02T08:46:27.171Z,51.18
2023-04-02T08:49:02.028Z,51.85
2023-04-02T08:51:33.286Z,52.58
2023-04-02T08:54:25.964Z,51.05
2023-04-02T08:56:59.431Z,52.21
2023-04-02T08:59:33.769Z,52.42
2023-04-02T09:02:23.166Z,52.31
2023-04-02T09:04:51.078Z,51.74
2023-04-02T09:07:18.745Z,50.15
2023-04-02T09:09:48.649Z,50.04
2023-04-02T09:12:21.636Z,49.56
2023-04-02T09:15:04.373Z,47.95
2023-04-02T09:17:42.675Z,48.38
2023-04-02T09:20:29.418Z,48.37
2023-04-02T09:22:57.375Z,51.04
2023-04-02T09:25:27.347Z,51.06
2023-04-02T09:27:56.714Z,51.36
2023-04-02T09:31:02.307Z,51.06
2023-04-02T09:33:44.257Z,50.45
2023-04-02T09:36:38.104Z,50.84
2023-04-02T09:39:19.978Z,51.52
2023-04-02T09:41:55.835Z,50.09
2023-04-02T09:44:32.682Z,49.12
2023-04-02T09:47:06.524Z,48.73
2023-04-02T09:49:39.002Z,49.34
2023-04-02T09:52:29.192Z,49.55
2023-04-02T09:55:31.065Z,50.37
2023-04-02T09:58:16.077Z,51.22
2023-04-02T10:00:51.242Z,50.04
2023-04-02T10:03:24.433Z,53.15
2023-04-02T10:06:11.441Z,51.31
2023-04-02T10:08:42.815Z,52.27
2023-04-02T10:11:43.625Z,54.25
2023-04-02T10:14:23.194Z,54.07
2023-04-02T10:16:52.511Z,53.96
2023-04-02T10:19:51.599Z,52.96
2023-04-02T10:22:20.954Z,55.00
2023-04-02T10:24:49.192Z,54.07
2023-04-02T10:27:39.168Z,54.72
2023-04-02T10:30:27.248Z,53.68
2023-04-02T10:33:01.488Z,52.60
2023-04-02T10:35:38.695Z,50.85
2023-04-02T10:38:09.333Z,51.47
2023-04-02T10:40:40.321Z,50.33
2023-04-02T10:43:45.012Z,51.00
2023-04-02T10:46:24.441Z,50.57
2023-04-02T10:49:08.363Z,50.90
2023-04-02T10:51:38.925Z,50.38
2023-04-02T10:54:34.024Z,49.28
2023-04-02T10:57:08.619Z,48.28
2023-04-02T10:59:39.952Z,47.18
2023-04-02T11:02:32.068Z,46.05
2023-04-02T11:05:04.348Z,46.21
2023-04-02T11:07:36.412Z,45.98
2023-04-02T11:10:04.514Z,45.35
2023-04-02T11:12:43.514Z,44.74
2023-04-02T11:15:16.871Z,44.75
2023-04-02T11:17:45.524Z,44.44
2023-04-02T11:21:01.301Z,44.14
2023-04-02T11:23:31.166Z,44.66
2023-04-02T11:26:38.236Z,46.16
2023-04-02T11:29:26.235Z,46.68
2023-04-02T11:32:32.810Z,46.48
2023-04-02T11:35:07.576Z,45.83
2023-04-02T11:37:44.717Z,45.30
2023-04-02T11:40:12.939Z,46.37
2023-04-02T11:42:45.369Z,47.25
2023-04-02T11:45:27.970Z,46.80
2023-04-02T11:48:01.918Z,47.84
2023-04-02T11:50:41.376Z,47.34
2023-04-02T11:53:12.083Z,48.01
2023-04-02T11:55:42.135Z,47.22
2023-04-02T11:58:28.264Z,48.21
2023-04-02T12:01:08.039Z,47.35
2023-04-02T12:03:41.837Z,46.91
2023-04-02T12:06:35.418Z,45.19
2023-04-02T12:09:25.166Z,46.32
2023-04-02T12:11:54.887Z,45.07
2023-04-02T12:14:42.651Z,44.25
2023-04-02T12:17:28.967Z,43.75
2023-04-02T12:20:04.313Z,43.88
2023-04-02T12:22:34.080Z,44.76
2023-04-02T12:25:06.418Z,44.70
2023-04-02T12:27:38.193Z,45.08
2023-04-02T12:30:20.565Z,43.77
2023-04-02T12:32:48.698Z,44.36
2023-04-02T12:35:36.394Z,43.45
2023-04-02T12:38:03.858Z,42.93
2023-04-02T12:40:32.328Z,42.29
2023-04-02T12:42:59.734Z,43.04
2023-04-02T12:45:29.822Z,42.76
2023-04-02T12:47:58.428Z,43.02
2023-04-02T12:50:26.137Z,41.56
2023-04-02T12:52:55.644Z,42.25
2023-04-02T12:55:25.743Z,42.08
2023-04-02T12:57:57.587Z,42.35
2023-04-02T13:00:25.431Z,42.23
2023-04-02T13:03:10.101Z,42.30
2023-04-02T13:05:42.620Z,41.93
2023-04-02T13:08:18.760Z,42.06
2023-04-02T13:10:52.581Z,42.43
2023-04-02T13:13:27.456Z,43.42
2023-04-02T13:16:25.392Z,44.03
2023-04-02T13:19:10.375Z,44.85
2023-04-02T13:21:38.660Z,43.13
2023-04-02T13:24:16.915Z,44.32
2023-04-02T13:26:44.892Z,43.91
2023-04-02T13:29:47.768Z,42.92
2023-04-02T13:32:15.667Z,44.33
2023-04-02T13:34:43.139Z,43.38
2023-04-02T13:37:12.760Z,43.65
2023-04-02T13:39:40.679Z,44.91
2023-04-02T13:42:11.700Z,45.39
2023-04-02T13:44:39.081Z,44.69
2023-04-02T13:47:07.421Z,46.12
2023-04-02T13:49:34.870Z,47.70
2023-04-02T13:52:04.927Z,47.85
2023-04-02T13:54:51.726Z,48.63
2023-04-02T13:57:19.704Z,47.49
2023-04-02T13:59:47.750Z,48.06
2023-04-02T14:02:21.732Z,48.15
2023-04-02T14:04:53.551Z,47.71
2023-04-02T14:07:35.774Z,47.96
2023-04-02T14:10:40.644Z,47.89
2023-04-02T14:13:37.807Z,46.55
2023-04-02T14:16:17.941Z,44.81
2023-04-02T14:19:00.393Z,44.86
2023-04-02T14:21:41.600Z,45.50
2023-04-02T14:24:08.941Z,44.97
2023-04-02T14:27:18.727Z,43.54
2023-04-02T14:30:02.531Z,44.21
2023-04-02T14:32:49.612Z,43.91
2023-04-02T14:35:29.845Z,43.40
2023-04-02T14:38:16.038Z,44.25
2023-04-02T14:40:54.098Z,44.94
2023-04-02T14:43:36.900Z,46.73
2023-04-02T14:46:06.250Z,46.95
2023-04-02T14:48:43.103Z,46.30
2023-04-02T14:51:37.705Z,47.35
2023-04-02T14:54:17.600Z,46.49
2023-04-02T14:56:51.845Z,46.36
2023-04-02T14:59:21.786Z,46.40
2023-04-02T15:01:51.502Z,46.06
2023-04-02T15:04:35.039Z,45.92
2023-04-02T15:07:14.087Z,46.82
2023-04-02T15:09:47.118Z,45.14
2023-04-02T15:12:22.772Z,45.55
2023-04-02T15:15:08.701Z,46.45
2023-04-02T15:17:36.497Z,46.73
2023-04-02T15:20:14.685Z,45.94
2023-04-02T15:22:48.017Z,45.65
2023-04-02T15:25:21.003Z,46.87
2023-04-02T15:28:08.607Z,46.59
2023-04-02T15:30:45.783Z,47.84
2023-04-02T15:33:53.894Z,49.86
2023-04-02T15:36:44.472Z,49.05
2023-04-02T15:39:34.149Z,49.00
2023-04-02T15:42:17.038Z,51.47
2023-04-02T15:44:56.332Z,51.95
2023-04-02T15:47:26.555Z,53.32
2023-04-02T15:50:14.957Z,54.73
2023-04-02T15:52:56.720Z,54.33
2023-04-02T15:55:39.969Z,53.91
2023-04-02T15:58:41.516Z,54.03
2023-04-02T16:01:44.188Z,53.53
2023-04-02T16:04:19.375Z,52.43
2023-04-02T16:06:53.424Z,52.63
2023-04-02T16:09:32.124Z,50.51
2023-04-02T16:12:17.820Z,48.04
2023-04-02T16:14:48.039Z,48.44
2023-04-02T16:17:24.870Z,48.08
2023-04-02T16:20:02.067Z,48.59
2023-04-02T16:22:33.253Z,48.55
2023-04-02T16:25:06.564Z,47.25
2023-04-02T16:27:43.205Z,47.09
2023-04-02T16:30:48.211Z,46.85
2023-04-02T16:33:45.979Z,45.94
2023-04-02T16:36:28.691Z,46.78
2023-04-02T16:39:04.134Z,44.40
2023-04-02T16:41:44.610Z,44.99
2023-04-02T16:44:36.781Z,44.27
2023-04-02T16:47:33.439Z,43.67
2023-04-02T16:50:15.966Z,44.29
2023-04-02T16:52:59.954Z,44.16
2023-04-02T16:55:52.092Z,43.90
2023-04-02T16:58:25.778Z,44.05
2023-04-02T17:01:01.341Z,44.47
2023-04-02T17:03:56.862Z,44.39
2023-04-02T17:06:32.642Z,43.85
2023-04-02T17:09:22.344Z,43.58
2023-04-02T17:12:03.964Z,45.46
2023-04-02T17:14:53.119Z,44.77
2023-04-02T17:17:22.322Z,44.20
2023-04-02T17:19:53.492Z,43.98
2023-04-02T17:22:22.687Z,46.09
2023-04-02T17:25:04.555Z,44.96
2023-04-02T17:27:41.544Z,45.11
2023-04-02T17:30:22.038Z,45.91
2023-04-02T17:32:49.561Z,44.70
2023-04-02T17:35:40.363Z,45.99
2023-04-02T17:38:17.129Z,45.58
2023-04-02T17:40:55.234Z,45.55
2023-04-02T17:43:46.088Z,46.09
2023-04-02T17:46:38.710Z,46.50
2023-04-02T17:49:15.795Z,47.39
2023-04-02T17:52:09.383Z,47.18
2023-04-02T17:55:03.231Z,45.26
2023-04-02T17:57:39.046Z,45.47
2023-04-02T18:00:45.051Z,46.55
2023-04-02T18:03:31.107Z,47.55
2023-04-02T18:06:06.627Z,47.45
2023-04-02T18:09:05.049Z,47.12
2023-04-02T18:11:47.416Z,48.69
2023-04-02T18:14:31.774Z,46.84
2023-04-02T18:17:11.411Z,47.54
2023-04-02T18:20:02.655Z,47.75
2023-04-02T18:22:42.830Z,48.17
2023-04-02T18:25:27.704Z,48.68
2023-04-02T18:28:04.716Z,47.75
2023-04-02T18:30:56.159Z,48.55
2023-04-02T18:34:02.243Z,49.05
2023-04-02T18:37:09.152Z,48.96
2023-04-02T18:39:59.971Z,48.52
2023-04-02T18:42:55.724Z,48.73
2023-04-02T18:45:50.950Z,49.01
2023-04-02T18:48:41.132Z,48.29
2023-04-02T18:51:23.235Z,48.78
2023-04-02T18:54:22.717Z,48.18
2023-04-02T18:56:50.158Z,49.33
2023-04-02T18:59:36.820Z,49.04
2023-04-02T19:02:25.454Z,49.20
2023-04-02T19:05:31.727Z,48.62
2023-04-02T19:08:24.556Z,47.55
2023-04-02T19:10:55.153Z,47.73
2023-04-02T19:13:22.739Z,47.33
2023-04-02T19:16:13.787Z,49.15
2023-04-02T19:18:41.542Z,48.63
2023-04-02T19:21:38.927Z,47.42
2023-04-02T19:24:32.870Z,48.92
2023-04-02T19:27:18.828Z,47.47
2023-04-02T19:29:55.840Z,49.31
2023-04-02T19:32:26.288Z,48.09
2023-04-02T19:35:06.325Z,47.82
2023-04-02T19:37:33.666Z,48.21
2023-04-02T19:40:29.275Z,48.72
2023-04-02T19:42:58.231Z,49.79
2023-04-02T19:45:38.649Z,51.04
2023-04-02T19:48:14.603Z,50.21
2023-04-02T19:50:43.483Z,49.15
2023-04-02T19:53:11.157Z,48.92
2023-04-02T19:55:40.132Z,48.69
2023-04-02T19:58:19.279Z,49.90
2023-04-02T20:00:47.496Z,48.72
2023-04-02T20:03:15.449Z,48.57
2023-04-02T20:05:43.004Z,48.17
2023-04-02T20:08:11.131Z,48.59
2023-04-02T20:10:39.373Z,49.81
2023-04-02T20:13:07.132Z,48.46
2023-04-02T20:15:35.220Z,48.55
2023-04-02T20:18:04.398Z,49.71
2023-04-02T20:20:31.917Z,47.62
2023-04-02T20:22:59.369Z,48.97
2023-04-02T20:25:27.134Z,48.82
2023-04-02T20:27:54.902Z,46.88
2023-04-02T20:30:22.541Z,48.53
2023-04-02T20:32:50.448Z,47.40
2023-04-02T20:35:17.929Z,47.15
2023-04-02T20:37:45.752Z,47.36
2023-04-02T20:40:13.817Z,48.39
2023-04-02T20:42:41.342Z,48.48
2023-04-02T20:45:09.524Z,47.71
2023-04-02T20:47:37.210Z,47.30
2023-04-02T20:50:05.196Z,47.81
2023-04-02T20:52:33.226Z,47.74
2023-04-02T20:55:16.460Z,48.58
2023-04-02T20:57:44.199Z,48.26
2023-04-02T21:00:12.677Z,48.26
2023-04-02T21:02:40.108Z,48.22
2023-04-02T21:05:07.833Z,47.10
2023-04-02T21:07:35.603Z,47.53
2023-04-02T21:10:03.186Z,48.47
2023-04-02T21:12:31.278Z,48.76
2023-04-02T21:15:01.724Z,50.02
2023-04-02T21:17:30.288Z,49.07
2023-04-02T21:19:57.784Z,48.14
2023-04-02T21:22:25.816Z,47.66
2023-04-02T21:24:53.506Z,47.18
2023-04-02T21:27:25.649Z,48.14
2023-04-02T21:29:53.561Z,46.58
2023-04-02T21:32:22.055Z,46.18
2023-04-02T21:34:49.712Z,47.04
2023-04-02T21:37:17.480Z,47.35
2023-04-02T21:39:44.868Z,48.12
2023-04-02T21:42:13.867Z,46.62
2023-04-02T21:44:41.550Z,48.50
2023-04-02T21:47:08.945Z,49.78
2023-04-02T21:49:36.391Z,47.84
2023-04-02T21:52:04.116Z,47.28
2023-04-02T21:54:31.554Z,48.61
2023-04-02T21:56:59.668Z,48.94
2023-04-02T21:59:27.482Z,47.75
2023-04-02T22:01:55.044Z,47.09
2023-04-02T22:04:24.656Z,49.57
2023-04-02T22:06:53.059Z,48.87
2023-04-02T22:09:24.684Z,47.94
2023-04-02T22:11:55.312Z,46.73
2023-04-02T22:14:23.383Z,47.27
2023-04-02T22:16:52.083Z,47.34
2023-04-02T22:19:20.063Z,46.72
2023-04-02T22:21:47.526Z,46.27
2023-04-02T22:24:18.630Z,45.88
2023-04-02T22:26:46.482Z,47.12
2023-04-02T22:29:14.594Z,47.56
2023-04-02T22:31:42.130Z,48.48
2023-04-02T22:34:09.964Z,49.02
2023-04-02T22:36:37.348Z,49.05
2023-04-02T22:39:07.010Z,48.02
2023-04-02T22:41:35.601Z,46.66
2023-04-02T22:44:03.103Z,47.75
2023-04-02T22:46:31.119Z,47.48
2023-04-02T22:48:58.959Z,47.03
2023-04-02T22:51:27.956Z,46.77
2023-04-02T22:53:56.702Z,46.31
2023-04-02T22:56:28.625Z,47.46
2023-04-02T22:58:56.175Z,49.19
2023-04-02T23:01:27.597Z,47.11
2023-04-02T23:03:55.712Z,48.16
2023-04-02T23:06:23.922Z,47.78
2023-04-02T23:08:51.921Z,48.64
2023-04-02T23:11:22.294Z,46.77
2023-04-02T23:13:51.507Z,48.14
2023-04-02T23:16:19.965Z,48.66
2023-04-02T23:18:48.320Z,47.05
2023-04-02T23:21:16.955Z,46.46
2023-04-02T23:23:45.660Z,47.81
2023-04-02T23:26:24.351Z,47.35
2023-04-02T23:28:52.093Z,47.02
2023-04-02T23:31:21.562Z,46.82
2023-04-02T23:33:50.118Z,46.27
2023-04-02T23:36:26.578Z,49.02
2023-04-02T23:39:04.039Z,48.59
2023-04-02T23:41:31.839Z,46.80
2023-04-02T23:43:59.701Z,46.77
2023-04-02T23:46:28.105Z,47.80
2023-04-02T23:48:56.503Z,44.91
2023-04-02T23:51:24.818Z,46.02
2023-04-02T23:53:53.591Z,44.11
2023-04-02T23:56:21.811Z,46.44
2023-04-02T23:58:50.314Z,44.39
